Terminal Aerodrome Forecast
Issued by NWS

Home | Current Version | Previous Version | Text Only | Print | Product List | Glossary On
Versions: 1 2 3 4 5 6 7 8 9 10 11 12 13 14 15
482
FTUS43 KFGF 240520
TAFDVL
TAF
KDVL 240520Z 2406/2506 14007KT P6SM FEW250
     FM240900 32002KT P6SM BKN100
     FM241200 22004KT P6SM BKN250
     FM250000 21006KT P6SM OVC100=

USA.gov is the U.S. government's official web portal to all federal, state and local government web resources and services.